Leibnitz, Austria
Current Conditions -  °F | °C
As of 2:20 AM on Sunday 23 Nov 2014 (Local Time) from LOWG Reporting Station
Light Fog Light Fog  
Wind Chill: 34°   Ceiling: 2200
Heat Index: 37°   Visibility: 0.81mi
Dew Point: 37°   Wind: 5mph
Humidity: 100%   Direction: 170°S
Pressure: 30.33"   Gusts: NA
Location:  46.78°N, 15.56°E
Report Text: LOWG 230120Z AUTO 17004KT 1300 R17/P1500D R35/P1500N BCFG FEW001 BKN022 03/03 Q1027
Loading
Personal Weather Stations






























Interactive Weather Map New forecast layout! Learn more

10-Day Weather Forecast

Advertisements
Track Severe Weather on mobile